Bartlett, Texas
Current Conditions -  °F | °C
As of 12:58 AM on Sunday 26 Oct 2014 (Local Time) from KGRK Reporting Station
Clear Clear  
Wind Chill: 65°   Ceiling: Unl
Heat Index: 65°   Visibility: 10mi
Dew Point: 58°   Wind: 9mph
Humidity: 78%   Direction: 190°S
Pressure: 30.07"   Gusts: NA
Location:  30.79°N, 97.43°W
Report Text: KGRK 260558Z AUTO 19008KT 10SM CLR 18/14 A3007 RMK AO2 SLP174 T01830144 10253 20174 403010155 57009
Loading
Personal Weather Stations






























Interactive Weather Map
Tropical Storm Tracking
New forecast layout! Learn more

10-Day Weather Forecast

Advertisements
Track Severe Weather on mobile